sensor_id;sensor_type;location;lat;lon;timestamp;temperature;humidity
52919;DHT22;38793;52.690;6.812;2024-03-23T00:54:18;7.00;99.90
52919;DHT22;38793;52.690;6.812;2024-03-23T00:56:44;7.00;99.90
52919;DHT22;38793;52.690;6.812;2024-03-23T00:59:09;6.90;99.90
52919;DHT22;38793;52.690;6.812;2024-03-23T01:01:35;6.90;99.90
52919;DHT22;38793;52.690;6.812;2024-03-23T01:04:01;6.90;99.90
52919;DHT22;38793;52.690;6.812;2024-03-23T01:06:26;6.90;99.90
52919;DHT22;38793;52.690;6.812;2024-03-23T01:08:52;6.80;99.90
52919;DHT22;38793;52.690;6.812;2024-03-23T01:11:18;6.80;99.90
52919;DHT22;38793;52.690;6.812;2024-03-23T01:13:43;6.70;99.90
52919;DHT22;38793;52.690;6.812;2024-03-23T01:16:09;6.70;99.90
52919;DHT22;38793;52.690;6.812;2024-03-23T01:18:35;6.70;99.90
52919;DHT22;38793;52.690;6.812;2024-03-23T01:21:00;6.60;99.90
52919;DHT22;38793;52.690;6.812;2024-03-23T01:23:26;6.60;99.90
52919;DHT22;38793;52.690;6.812;2024-03-23T01:25:55;6.60;99.90
52919;DHT22;38793;52.690;6.812;2024-03-23T01:28:21;6.50;99.90
52919;DHT22;38793;52.690;6.812;2024-03-23T01:30:47;6.50;99.90
52919;DHT22;38793;52.690;6.812;2024-03-23T01:33:13;6.50;99.90
52919;DHT22;38793;52.690;6.812;2024-03-23T01:35:39;6.50;99.90
52919;DHT22;38793;52.690;6.812;2024-03-23T01:38:05;6.50;99.90
52919;DHT22;38793;52.690;6.812;2024-03-23T01:40:31;6.50;99.90
52919;DHT22;38793;52.690;6.812;2024-03-23T01:42:58;6.40;99.90
52919;DHT22;38793;52.690;6.812;2024-03-23T01:45:24;6.40;99.90
52919;DHT22;38793;52.690;6.812;2024-03-23T01:47:51;6.50;99.90
52919;DHT22;38793;52.690;6.812;2024-03-23T01:50:17;6.50;99.90
52919;DHT22;38793;52.690;6.812;2024-03-23T01:52:43;6.40;99.90
52919;DHT22;38793;52.690;6.812;2024-03-23T01:55:09;6.40;99.90
52919;DHT22;38793;52.690;6.812;2024-03-23T01:57:35;6.40;99.90
52919;DHT22;38793;52.690;6.812;2024-03-23T02:00:01;6.40;99.90
52919;DHT22;38793;52.690;6.812;2024-03-23T02:02:26;6.40;99.90
52919;DHT22;38793;52.690;6.812;2024-03-23T02:04:52;6.40;99.90
52919;DHT22;38793;52.690;6.812;2024-03-23T02:07:18;6.40;99.90
52919;DHT22;38793;52.690;6.812;2024-03-23T02:09:44;6.40;99.90
52919;DHT22;38793;52.690;6.812;2024-03-23T02:12:09;6.40;99.90
52919;DHT22;38793;52.690;6.812;2024-03-23T02:14:35;6.30;99.90
52919;DHT22;38793;52.690;6.812;2024-03-23T02:17:01;6.30;99.90
52919;DHT22;38793;52.690;6.812;2024-03-23T02:19:27;6.20;99.90
52919;DHT22;38793;52.690;6.812;2024-03-23T02:21:52;6.20;99.90
52919;DHT22;38793;52.690;6.812;2024-03-23T02:24:18;6.10;99.90
52919;DHT22;38793;52.690;6.812;2024-03-23T02:26:43;6.20;99.90
52919;DHT22;38793;52.690;6.812;2024-03-23T02:29:09;6.10;99.90
52919;DHT22;38793;52.690;6.812;2024-03-23T02:31:35;6.10;99.90
52919;DHT22;38793;52.690;6.812;2024-03-23T02:34:01;6.10;99.90
52919;DHT22;38793;52.690;6.812;2024-03-23T02:36:27;6.10;99.90
52919;DHT22;38793;52.690;6.812;2024-03-23T02:38:52;6.00;99.90
52919;DHT22;38793;52.690;6.812;2024-03-23T02:41:18;6.00;99.90
52919;DHT22;38793;52.690;6.812;2024-03-23T02:43:51;6.00;99.90
52919;DHT22;38793;52.690;6.812;2024-03-23T02:46:17;5.90;99.90
52919;DHT22;38793;52.690;6.812;2024-03-23T02:48:43;5.90;99.90
52919;DHT22;38793;52.690;6.812;2024-03-23T02:51:09;5.90;99.90
52919;DHT22;38793;52.690;6.812;2024-03-23T02:53:35;5.90;99.90
52919;DHT22;38793;52.690;6.812;2024-03-23T02:56:00;5.90;99.90
52919;DHT22;38793;52.690;6.812;2024-03-23T02:58:26;5.80;99.90
52919;DHT22;38793;52.690;6.812;2024-03-23T03:00:52;5.80;99.90
52919;DHT22;38793;52.690;6.812;2024-03-23T03:03:17;5.80;99.90
52919;DHT22;38793;52.690;6.812;2024-03-23T03:05:43;5.70;99.90
52919;DHT22;38793;52.690;6.812;2024-03-23T03:08:09;5.70;99.90
52919;DHT22;38793;52.690;6.812;2024-03-23T03:10:34;5.60;99.90
52919;DHT22;38793;52.690;6.812;2024-03-23T03:13:02;5.60;99.90
52919;DHT22;38793;52.690;6.812;2024-03-23T03:15:27;5.50;99.90
52919;DHT22;38793;52.690;6.812;2024-03-23T03:17:53;5.50;99.90
52919;DHT22;38793;52.690;6.812;2024-03-23T03:20:19;5.40;99.90
52919;DHT22;38793;52.690;6.812;2024-03-23T03:22:47;5.40;99.90
52919;DHT22;38793;52.690;6.812;2024-03-23T03:25:13;5.40;99.90
52919;DHT22;38793;52.690;6.812;2024-03-23T03:27:38;5.40;99.90
52919;DHT22;38793;52.690;6.812;2024-03-23T03:30:05;5.30;99.90
52919;DHT22;38793;52.690;6.812;2024-03-23T03:32:32;5.30;99.90
52919;DHT22;38793;52.690;6.812;2024-03-23T03:34:58;5.20;99.90
52919;DHT22;38793;52.690;6.812;2024-03-23T03:37:24;5.30;99.90
52919;DHT22;38793;52.690;6.812;2024-03-23T03:39:49;5.20;99.90
52919;DHT22;38793;52.690;6.812;2024-03-23T03:42:15;5.20;99.90
52919;DHT22;38793;52.690;6.812;2024-03-23T03:44:41;5.20;99.90
52919;DHT22;38793;52.690;6.812;2024-03-23T03:47:06;5.10;99.90
52919;DHT22;38793;52.690;6.812;2024-03-23T03:49:32;5.10;99.90
52919;DHT22;38793;52.690;6.812;2024-03-23T03:51:58;5.10;99.90
52919;DHT22;38793;52.690;6.812;2024-03-23T03:54:24;5.10;99.90
52919;DHT22;38793;52.690;6.812;2024-03-23T03:56:49;5.10;99.90
52919;DHT22;38793;52.690;6.812;2024-03-23T03:59:15;5.00;99.90
52919;DHT22;38793;52.690;6.812;2024-03-23T04:01:41;4.90;99.90
52919;DHT22;38793;52.690;6.812;2024-03-23T04:04:06;4.90;99.90
52919;DHT22;38793;52.690;6.812;2024-03-23T04:06:32;4.90;99.90
52919;DHT22;38793;52.690;6.812;2024-03-23T04:08:59;4.90;99.90
52919;DHT22;38793;52.690;6.812;2024-03-23T04:11:24;4.80;99.90
52919;DHT22;38793;52.690;6.812;2024-03-23T04:13:50;4.90;99.90
52919;DHT22;38793;52.690;6.812;2024-03-23T04:16:29;4.80;99.90
52919;DHT22;38793;52.690;6.812;2024-03-23T04:18:55;4.80;99.90
52919;DHT22;38793;52.690;6.812;2024-03-23T04:21:22;4.80;99.90
52919;DHT22;38793;52.690;6.812;2024-03-23T04:23:48;4.80;99.90
52919;DHT22;38793;52.690;6.812;2024-03-23T04:26:14;4.80;99.90
52919;DHT22;38793;52.690;6.812;2024-03-23T04:28:40;4.90;99.90
52919;DHT22;38793;52.690;6.812;2024-03-23T04:31:06;4.90;99.90
52919;DHT22;38793;52.690;6.812;2024-03-23T04:33:32;4.80;99.90
52919;DHT22;38793;52.690;6.812;2024-03-23T04:35:57;4.80;99.90
52919;DHT22;38793;52.690;6.812;2024-03-23T04:38:23;4.80;99.90
52919;DHT22;38793;52.690;6.812;2024-03-23T04:40:59;4.80;99.90
52919;DHT22;38793;52.690;6.812;2024-03-23T04:43:26;4.70;99.90
52919;DHT22;38793;52.690;6.812;2024-03-23T04:45:52;4.70;99.90
52919;DHT22;38793;52.690;6.812;2024-03-23T04:48:22;4.70;99.90
52919;DHT22;38793;52.690;6.812;2024-03-23T04:50:55;4.70;99.90
52919;DHT22;38793;52.690;6.812;2024-03-23T04:53:21;4.70;99.90
52919;DHT22;38793;52.690;6.812;2024-03-23T04:55:47;4.70;99.90
52919;DHT22;38793;52.690;6.812;2024-03-23T04:58:12;4.70;99.90
52919;DHT22;38793;52.690;6.812;2024-03-23T05:00:38;4.70;99.90
52919;DHT22;38793;52.690;6.812;2024-03-23T05:03:04;4.60;99.90
52919;DHT22;38793;52.690;6.812;2024-03-23T05:05:30;4.70;99.90
52919;DHT22;38793;52.690;6.812;2024-03-23T05:07:55;4.70;99.90
52919;DHT22;38793;52.690;6.812;2024-03-23T05:10:21;4.70;99.90
52919;DHT22;38793;52.690;6.812;2024-03-23T05:12:47;4.80;99.90
52919;DHT22;38793;52.690;6.812;2024-03-23T05:15:12;4.80;99.90
52919;DHT22;38793;52.690;6.812;2024-03-23T05:17:38;4.80;99.90
52919;DHT22;38793;52.690;6.812;2024-03-23T05:20:05;4.80;99.90
52919;DHT22;38793;52.690;6.812;2024-03-23T05:22:35;4.80;99.90
52919;DHT22;38793;52.690;6.812;2024-03-23T05:25:02;4.80;99.90
52919;DHT22;38793;52.690;6.812;2024-03-23T05:27:31;4.80;99.90
52919;DHT22;38793;52.690;6.812;2024-03-23T05:29:57;4.80;99.90
52919;DHT22;38793;52.690;6.812;2024-03-23T05:32:23;4.80;99.90
52919;DHT22;38793;52.690;6.812;2024-03-23T05:34:49;4.80;99.90
52919;DHT22;38793;52.690;6.812;2024-03-23T05:37:15;4.80;99.90
52919;DHT22;38793;52.690;6.812;2024-03-23T05:39:41;4.90;99.90
52919;DHT22;38793;52.690;6.812;2024-03-23T05:42:07;4.90;99.90
52919;DHT22;38793;52.690;6.812;2024-03-23T05:44:33;4.90;99.90
52919;DHT22;38793;52.690;6.812;2024-03-23T05:46:59;4.90;99.90
52919;DHT22;38793;52.690;6.812;2024-03-23T05:49:24;4.80;99.90
52919;DHT22;38793;52.690;6.812;2024-03-23T05:51:50;4.80;99.90
52919;DHT22;38793;52.690;6.812;2024-03-23T05:54:16;4.80;99.90
52919;DHT22;38793;52.690;6.812;2024-03-23T05:56:41;4.80;99.90
52919;DHT22;38793;52.690;6.812;2024-03-23T05:59:07;4.90;99.90
52919;DHT22;38793;52.690;6.812;2024-03-23T06:01:33;4.90;99.90
52919;DHT22;38793;52.690;6.812;2024-03-23T06:03:58;4.90;99.90
52919;DHT22;38793;52.690;6.812;2024-03-23T06:06:26;5.00;99.90
52919;DHT22;38793;52.690;6.812;2024-03-23T06:08:52;5.10;99.90
52919;DHT22;38793;52.690;6.812;2024-03-23T06:11:18;5.30;99.90
52919;DHT22;38793;52.690;6.812;2024-03-23T06:13:43;5.40;99.90
52919;DHT22;38793;52.690;6.812;2024-03-23T06:16:09;5.60;99.90
52919;DHT22;38793;52.690;6.812;2024-03-23T06:18:35;5.80;99.90
52919;DHT22;38793;52.690;6.812;2024-03-23T06:21:01;6.10;99.90
52919;DHT22;38793;52.690;6.812;2024-03-23T06:23:27;6.30;99.90
52919;DHT22;38793;52.690;6.812;2024-03-23T06:25:52;6.50;99.90
52919;DHT22;38793;52.690;6.812;2024-03-23T06:28:18;6.70;99.90
52919;DHT22;38793;52.690;6.812;2024-03-23T06:30:43;6.90;99.90
52919;DHT22;38793;52.690;6.812;2024-03-23T06:33:09;7.10;99.90
52919;DHT22;38793;52.690;6.812;2024-03-23T06:35:35;7.40;99.90
52919;DHT22;38793;52.690;6.812;2024-03-23T06:38:00;7.60;99.90
52919;DHT22;38793;52.690;6.812;2024-03-23T06:40:26;7.70;99.90
52919;DHT22;38793;52.690;6.812;2024-03-23T06:42:52;7.60;99.90
52919;DHT22;38793;52.690;6.812;2024-03-23T06:45:17;7.60;99.90
52919;DHT22;38793;52.690;6.812;2024-03-23T06:47:49;7.50;99.90
52919;DHT22;38793;52.690;6.812;2024-03-23T06:50:15;7.20;99.90
52919;DHT22;38793;52.690;6.812;2024-03-23T06:52:40;7.00;99.90
52919;DHT22;38793;52.690;6.812;2024-03-23T06:55:06;6.70;99.90
52919;DHT22;38793;52.690;6.812;2024-03-23T06:57:32;6.50;99.90
52919;DHT22;38793;52.690;6.812;2024-03-23T06:59:58;6.30;99.90
52919;DHT22;38793;52.690;6.812;2024-03-23T07:02:23;6.10;99.90
52919;DHT22;38793;52.690;6.812;2024-03-23T07:04:49;6.00;99.90
52919;DHT22;38793;52.690;6.812;2024-03-23T07:07:15;5.80;99.90
52919;DHT22;38793;52.690;6.812;2024-03-23T07:09:40;5.70;99.90
52919;DHT22;38793;52.690;6.812;2024-03-23T07:12:06;5.70;99.90
52919;DHT22;38793;52.690;6.812;2024-03-23T07:14:32;5.70;99.90
52919;DHT22;38793;52.690;6.812;2024-03-23T07:16:57;5.80;99.90
52919;DHT22;38793;52.690;6.812;2024-03-23T07:19:23;5.90;99.90
52919;DHT22;38793;52.690;6.812;2024-03-23T07:21:50;6.00;99.90
52919;DHT22;38793;52.690;6.812;2024-03-23T07:24:15;6.20;99.90
52919;DHT22;38793;52.690;6.812;2024-03-23T07:26:41;6.30;99.90
52919;DHT22;38793;52.690;6.812;2024-03-23T07:29:07;6.30;99.90
52919;DHT22;38793;52.690;6.812;2024-03-23T07:31:33;6.30;99.90
52919;DHT22;38793;52.690;6.812;2024-03-23T07:33:58;6.40;99.90
52919;DHT22;38793;52.690;6.812;2024-03-23T07:36:24;6.60;99.90
52919;DHT22;38793;52.690;6.812;2024-03-23T07:38:50;6.80;99.90
52919;DHT22;38793;52.690;6.812;2024-03-23T07:41:20;7.00;99.90
52919;DHT22;38793;52.690;6.812;2024-03-23T07:43:47;7.10;99.90
52919;DHT22;38793;52.690;6.812;2024-03-23T07:46:14;7.20;99.90
52919;DHT22;38793;52.690;6.812;2024-03-23T07:48:40;7.40;99.90
52919;DHT22;38793;52.690;6.812;2024-03-23T07:51:20;7.40;99.90
52919;DHT22;38793;52.690;6.812;2024-03-23T07:53:46;7.50;99.90
52919;DHT22;38793;52.690;6.812;2024-03-23T07:56:13;7.70;99.90
52919;DHT22;38793;52.690;6.812;2024-03-23T07:58:40;7.80;99.90
52919;DHT22;38793;52.690;6.812;2024-03-23T08:01:11;8.00;99.90
52919;DHT22;38793;52.690;6.812;2024-03-23T08:03:37;8.00;99.90
52919;DHT22;38793;52.690;6.812;2024-03-23T08:06:17;7.80;99.90
52919;DHT22;38793;52.690;6.812;2024-03-23T08:08:46;7.60;99.90
52919;DHT22;38793;52.690;6.812;2024-03-23T08:11:12;7.30;99.90
52919;DHT22;38793;52.690;6.812;2024-03-23T08:13:42;7.20;99.90
52919;DHT22;38793;52.690;6.812;2024-03-23T08:16:08;7.00;99.90
52919;DHT22;38793;52.690;6.812;2024-03-23T08:18:34;6.90;99.90
52919;DHT22;38793;52.690;6.812;2024-03-23T08:23:30;6.80;99.90
52919;DHT22;38793;52.690;6.812;2024-03-23T08:26:03;6.70;99.90
52919;DHT22;38793;52.690;6.812;2024-03-23T08:28:29;6.70;99.90
52919;DHT22;38793;52.690;6.812;2024-03-23T08:30:55;6.70;99.90
52919;DHT22;38793;52.690;6.812;2024-03-23T08:33:22;6.90;99.90
52919;DHT22;38793;52.690;6.812;2024-03-23T08:35:56;7.10;99.90
52919;DHT22;38793;52.690;6.812;2024-03-23T08:38:23;7.20;99.90
52919;DHT22;38793;52.690;6.812;2024-03-23T08:40:57;7.20;99.90
52919;DHT22;38793;52.690;6.812;2024-03-23T08:43:23;7.20;99.90
52919;DHT22;38793;52.690;6.812;2024-03-23T08:45:48;7.10;99.90
52919;DHT22;38793;52.690;6.812;2024-03-23T08:48:14;7.10;99.90
52919;DHT22;38793;52.690;6.812;2024-03-23T08:50:40;7.10;99.90
52919;DHT22;38793;52.690;6.812;2024-03-23T08:53:05;7.20;99.90
52919;DHT22;38793;52.690;6.812;2024-03-23T08:55:31;7.20;99.90
52919;DHT22;38793;52.690;6.812;2024-03-23T08:57:57;7.20;99.90
52919;DHT22;38793;52.690;6.812;2024-03-23T09:00:22;7.20;99.90
52919;DHT22;38793;52.690;6.812;2024-03-23T09:02:48;7.30;99.90
52919;DHT22;38793;52.690;6.812;2024-03-23T09:05:14;7.30;99.90
52919;DHT22;38793;52.690;6.812;2024-03-23T09:07:39;7.30;99.90
52919;DHT22;38793;52.690;6.812;2024-03-23T09:10:06;7.40;99.90
52919;DHT22;38793;52.690;6.812;2024-03-23T09:12:32;7.40;99.90
52919;DHT22;38793;52.690;6.812;2024-03-23T09:14:58;7.30;99.90
52919;DHT22;38793;52.690;6.812;2024-03-23T09:17:23;7.30;99.90
52919;DHT22;38793;52.690;6.812;2024-03-23T09:19:49;7.20;99.90
52919;DHT22;38793;52.690;6.812;2024-03-23T09:22:15;7.20;99.90
52919;DHT22;38793;52.690;6.812;2024-03-23T09:24:40;7.20;99.90
52919;DHT22;38793;52.690;6.812;2024-03-23T09:27:06;7.20;99.90
52919;DHT22;38793;52.690;6.812;2024-03-23T09:29:32;7.30;99.90
52919;DHT22;38793;52.690;6.812;2024-03-23T09:31:57;7.40;99.90
52919;DHT22;38793;52.690;6.812;2024-03-23T09:34:23;7.50;99.90
52919;DHT22;38793;52.690;6.812;2024-03-23T09:36:52;7.60;99.90
52919;DHT22;38793;52.690;6.812;2024-03-23T09:39:18;7.70;99.90
52919;DHT22;38793;52.690;6.812;2024-03-23T09:41:45;7.90;99.90
52919;DHT22;38793;52.690;6.812;2024-03-23T09:44:11;8.00;99.90
52919;DHT22;38793;52.690;6.812;2024-03-23T09:46:36;8.10;99.90
52919;DHT22;38793;52.690;6.812;2024-03-23T09:49:06;8.20;99.90
52919;DHT22;38793;52.690;6.812;2024-03-23T09:51:35;8.30;99.90
52919;DHT22;38793;52.690;6.812;2024-03-23T09:54:01;8.50;99.90
52919;DHT22;38793;52.690;6.812;2024-03-23T09:56:27;8.60;99.90
52919;DHT22;38793;52.690;6.812;2024-03-23T09:59:03;8.70;99.90
52919;DHT22;38793;52.690;6.812;2024-03-23T10:01:32;8.70;99.90
52919;DHT22;38793;52.690;6.812;2024-03-23T10:03:57;8.80;99.90
52919;DHT22;38793;52.690;6.812;2024-03-23T10:06:23;8.80;99.90
52919;DHT22;38793;52.690;6.812;2024-03-23T10:08:52;8.90;91.90
52919;DHT22;38793;52.690;6.812;2024-03-23T10:11:20;9.00;82.90
52919;DHT22;38793;52.690;6.812;2024-03-23T10:13:47;9.10;86.10
52919;DHT22;38793;52.690;6.812;2024-03-23T10:16:21;9.00;78.40
52919;DHT22;38793;52.690;6.812;2024-03-23T10:18:48;9.00;79.30
52919;DHT22;38793;52.690;6.812;2024-03-23T10:21:15;8.80;73.50
52919;DHT22;38793;52.690;6.812;2024-03-23T10:23:43;8.70;62.70
52919;DHT22;38793;52.690;6.812;2024-03-23T10:26:24;8.50;59.50
52919;DHT22;38793;52.690;6.812;2024-03-23T10:29:00;8.50;70.80
52919;DHT22;38793;52.690;6.812;2024-03-23T10:31:33;8.50;61.20
52919;DHT22;38793;52.690;6.812;2024-03-23T10:33:59;8.70;66.20
52919;DHT22;38793;52.690;6.812;2024-03-23T10:36:26;8.90;53.20
52919;DHT22;38793;52.690;6.812;2024-03-23T10:38:54;9.10;41.80
52919;DHT22;38793;52.690;6.812;2024-03-23T10:41:20;9.10;27.70
52919;DHT22;38793;52.690;6.812;2024-03-23T10:43:48;9.00;13.80
52919;DHT22;38793;52.690;6.812;2024-03-23T10:46:14;8.70;5.30
52919;DHT22;38793;52.690;6.812;2024-03-23T10:48:40;8.50;15.10
52919;DHT22;38793;52.690;6.812;2024-03-23T10:51:07;8.40;26.80
52919;DHT22;38793;52.690;6.812;2024-03-23T10:53:34;8.30;37.30
52919;DHT22;38793;52.690;6.812;2024-03-23T10:56:00;8.10;36.00
52919;DHT22;38793;52.690;6.812;2024-03-23T10:58:46;8.10;37.90
52919;DHT22;38793;52.690;6.812;2024-03-23T11:01:13;8.10;43.30
52919;DHT22;38793;52.690;6.812;2024-03-23T11:03:40;7.90;36.80
52919;DHT22;38793;52.690;6.812;2024-03-23T11:06:10;7.80;35.10
52919;DHT22;38793;52.690;6.812;2024-03-23T11:08:37;7.70;41.80
52919;DHT22;38793;52.690;6.812;2024-03-23T11:11:19;7.70;57.50
52919;DHT22;38793;52.690;6.812;2024-03-23T11:13:52;7.80;68.80
52919;DHT22;38793;52.690;6.812;2024-03-23T11:16:28;8.10;78.70
52919;DHT22;38793;52.690;6.812;2024-03-23T11:19:33;8.40;69.30
52919;DHT22;38793;52.690;6.812;2024-03-23T11:21:54;8.60;57.60
52919;DHT22;38793;52.690;6.812;2024-03-23T11:24:21;8.90;65.10
52919;DHT22;38793;52.690;6.812;2024-03-23T11:26:48;8.90;43.70
52919;DHT22;38793;52.690;6.812;2024-03-23T11:29:15;8.70;33.60
52919;DHT22;38793;52.690;6.812;2024-03-23T11:31:51;8.50;38.00
52919;DHT22;38793;52.690;6.812;2024-03-23T11:34:17;8.40;34.90
52919;DHT22;38793;52.690;6.812;2024-03-23T11:36:44;8.20;29.30
52919;DHT22;38793;52.690;6.812;2024-03-23T11:39:18;8.20;19.60
52919;DHT22;38793;52.690;6.812;2024-03-23T11:41:51;8.40;35.00
52919;DHT22;38793;52.690;6.812;2024-03-23T11:44:21;8.70;28.30
52919;DHT22;38793;52.690;6.812;2024-03-23T11:46:50;8.90;19.30
52919;DHT22;38793;52.690;6.812;2024-03-23T11:49:26;9.00;17.60
52919;DHT22;38793;52.690;6.812;2024-03-23T11:51:54;9.10;21.80
52919;DHT22;38793;52.690;6.812;2024-03-23T11:54:20;8.90;24.60
52919;DHT22;38793;52.690;6.812;2024-03-23T11:59:41;8.80;46.10
52919;DHT22;38793;52.690;6.812;2024-03-23T12:02:11;8.80;52.90
52919;DHT22;38793;52.690;6.812;2024-03-23T12:04:37;9.00;66.00
52919;DHT22;38793;52.690;6.812;2024-03-23T12:07:12;9.30;66.30
52919;DHT22;38793;52.690;6.812;2024-03-23T12:09:38;9.60;60.20
52919;DHT22;38793;52.690;6.812;2024-03-23T12:12:13;9.90;62.10
52919;DHT22;38793;52.690;6.812;2024-03-23T12:14:40;10.00;48.00
52919;DHT22;38793;52.690;6.812;2024-03-23T12:17:15;10.00;28.20
52919;DHT22;38793;52.690;6.812;2024-03-23T12:19:41;9.90;30.20
52919;DHT22;38793;52.690;6.812;2024-03-23T12:22:08;9.70;30.00
52919;DHT22;38793;52.690;6.812;2024-03-23T12:24:34;9.50;27.90
52919;DHT22;38793;52.690;6.812;2024-03-23T12:27:04;9.30;32.30
52919;DHT22;38793;52.690;6.812;2024-03-23T12:29:31;9.20;55.10
52919;DHT22;38793;52.690;6.812;2024-03-23T12:32:00;9.20;70.50
52919;DHT22;38793;52.690;6.812;2024-03-23T12:34:26;9.40;79.10
52919;DHT22;38793;52.690;6.812;2024-03-23T12:36:52;9.40;68.90
52919;DHT22;38793;52.690;6.812;2024-03-23T12:39:17;9.20;45.60
52919;DHT22;38793;52.690;6.812;2024-03-23T12:41:44;9.10;51.80
52919;DHT22;38793;52.690;6.812;2024-03-23T12:44:09;9.10;72.40
52919;DHT22;38793;52.690;6.812;2024-03-23T12:46:37;9.20;87.20
52919;DHT22;38793;52.690;6.812;2024-03-23T12:49:03;9.30;51.70
52919;DHT22;38793;52.690;6.812;2024-03-23T12:51:29;9.40;40.00
52919;DHT22;38793;52.690;6.812;2024-03-23T12:53:54;9.50;17.10
52919;DHT22;38793;52.690;6.812;2024-03-23T12:56:20;9.60;18.60
52919;DHT22;38793;52.690;6.812;2024-03-23T12:58:46;9.70;18.70
52919;DHT22;38793;52.690;6.812;2024-03-23T13:01:16;9.90;20.80
52919;DHT22;38793;52.690;6.812;2024-03-23T13:03:42;9.80;8.90
52919;DHT22;38793;52.690;6.812;2024-03-23T13:06:10;9.60;1.00
52919;DHT22;38793;52.690;6.812;2024-03-23T13:08:36;8.90;1.00
52919;DHT22;38793;52.690;6.812;2024-03-23T13:11:01;8.20;1.00
52919;DHT22;38793;52.690;6.812;2024-03-23T13:13:27;7.60;5.90
52919;DHT22;38793;52.690;6.812;2024-03-23T13:15:53;7.20;26.10
52919;DHT22;38793;52.690;6.812;2024-03-23T13:18:18;7.00;43.60
52919;DHT22;38793;52.690;6.812;2024-03-23T13:20:44;6.80;55.40
52919;DHT22;38793;52.690;6.812;2024-03-23T13:23:10;6.80;67.10
52919;DHT22;38793;52.690;6.812;2024-03-23T13:25:36;6.80;83.20
52919;DHT22;38793;52.690;6.812;2024-03-23T13:28:02;6.80;88.40
52919;DHT22;38793;52.690;6.812;2024-03-23T13:30:29;6.80;87.70
52919;DHT22;38793;52.690;6.812;2024-03-23T13:32:56;6.90;92.40
52919;DHT22;38793;52.690;6.812;2024-03-23T13:35:22;7.10;95.30
52919;DHT22;38793;52.690;6.812;2024-03-23T13:37:48;7.30;97.30
52919;DHT22;38793;52.690;6.812;2024-03-23T13:40:14;7.50;96.30
52919;DHT22;38793;52.690;6.812;2024-03-23T13:42:39;7.70;97.40
52919;DHT22;38793;52.690;6.812;2024-03-23T13:45:05;7.80;95.10
52919;DHT22;38793;52.690;6.812;2024-03-23T13:47:31;8.00;91.40
52919;DHT22;38793;52.690;6.812;2024-03-23T13:49:57;8.10;84.50
52919;DHT22;38793;52.690;6.812;2024-03-23T13:52:22;8.10;89.60
52919;DHT22;38793;52.690;6.812;2024-03-23T13:54:51;8.30;89.60
52919;DHT22;38793;52.690;6.812;2024-03-23T13:57:17;8.30;81.30
52919;DHT22;38793;52.690;6.812;2024-03-23T13:59:46;8.30;73.70
52919;DHT22;38793;52.690;6.812;2024-03-23T14:02:11;8.20;78.90
52919;DHT22;38793;52.690;6.812;2024-03-23T14:04:40;8.10;77.00
52919;DHT22;38793;52.690;6.812;2024-03-23T14:07:05;7.90;77.40
52919;DHT22;38793;52.690;6.812;2024-03-23T14:09:32;7.70;74.10
52919;DHT22;38793;52.690;6.812;2024-03-23T14:11:58;7.50;82.50
52919;DHT22;38793;52.690;6.812;2024-03-23T14:14:25;7.40;86.90
52919;DHT22;38793;52.690;6.812;2024-03-23T14:16:51;7.40;93.40
52919;DHT22;38793;52.690;6.812;2024-03-23T14:19:17;7.60;98.60
52919;DHT22;38793;52.690;6.812;2024-03-23T14:21:42;7.90;98.90
52919;DHT22;38793;52.690;6.812;2024-03-23T14:24:08;8.10;99.90
52919;DHT22;38793;52.690;6.812;2024-03-23T14:26:34;8.30;88.30
52919;DHT22;38793;52.690;6.812;2024-03-23T14:29:01;8.40;70.70
52919;DHT22;38793;52.690;6.812;2024-03-23T14:31:26;8.40;68.00
52919;DHT22;38793;52.690;6.812;2024-03-23T14:33:52;8.40;73.10
52919;DHT22;38793;52.690;6.812;2024-03-23T14:36:18;8.60;72.10
52919;DHT22;38793;52.690;6.812;2024-03-23T14:38:50;8.70;60.50
52919;DHT22;38793;52.690;6.812;2024-03-23T14:41:16;8.80;54.70
52919;DHT22;38793;52.690;6.812;2024-03-23T14:43:42;8.70;35.40
52919;DHT22;38793;52.690;6.812;2024-03-23T14:46:12;8.60;37.40
52919;DHT22;38793;52.690;6.812;2024-03-23T14:48:38;8.10;37.20
52919;DHT22;38793;52.690;6.812;2024-03-23T14:51:04;7.60;42.60
52919;DHT22;38793;52.690;6.812;2024-03-23T14:53:36;7.40;62.40
52919;DHT22;38793;52.690;6.812;2024-03-23T14:56:03;7.20;72.70
52919;DHT22;38793;52.690;6.812;2024-03-23T14:58:29;7.20;88.80
52919;DHT22;38793;52.690;6.812;2024-03-23T15:01:05;7.30;92.50
52919;DHT22;38793;52.690;6.812;2024-03-23T15:03:35;7.60;85.60
52919;DHT22;38793;52.690;6.812;2024-03-23T15:06:01;7.80;89.50
52919;DHT22;38793;52.690;6.812;2024-03-23T15:08:27;8.00;70.70
52919;DHT22;38793;52.690;6.812;2024-03-23T15:10:53;8.00;63.20
52919;DHT22;38793;52.690;6.812;2024-03-23T15:13:19;8.00;60.30
52919;DHT22;38793;52.690;6.812;2024-03-23T15:15:46;8.10;64.10
52919;DHT22;38793;52.690;6.812;2024-03-23T15:18:17;8.20;57.80
52919;DHT22;38793;52.690;6.812;2024-03-23T15:20:54;8.30;60.50
52919;DHT22;38793;52.690;6.812;2024-03-23T15:23:20;8.50;64.20
52919;DHT22;38793;52.690;6.812;2024-03-23T15:25:46;8.70;54.80
52919;DHT22;38793;52.690;6.812;2024-03-23T15:28:11;8.90;56.60
52919;DHT22;38793;52.690;6.812;2024-03-23T15:30:38;9.00;57.70
52919;DHT22;38793;52.690;6.812;2024-03-23T15:33:03;9.10;34.90
52919;DHT22;38793;52.690;6.812;2024-03-23T15:35:29;9.00;29.60
52919;DHT22;38793;52.690;6.812;2024-03-23T15:37:55;9.00;34.20
52919;DHT22;38793;52.690;6.812;2024-03-23T15:40:21;9.00;38.20
52919;DHT22;38793;52.690;6.812;2024-03-23T15:42:47;8.80;38.00
52919;DHT22;38793;52.690;6.812;2024-03-23T15:45:12;8.60;41.10
52919;DHT22;38793;52.690;6.812;2024-03-23T15:47:38;8.50;47.80
52919;DHT22;38793;52.690;6.812;2024-03-23T15:50:04;8.40;40.10
52919;DHT22;38793;52.690;6.812;2024-03-23T15:52:36;8.20;42.90
52919;DHT22;38793;52.690;6.812;2024-03-23T15:55:02;8.10;47.00
52919;DHT22;38793;52.690;6.812;2024-03-23T15:57:31;8.00;59.30
52919;DHT22;38793;52.690;6.812;2024-03-23T15:59:57;7.80;56.60
52919;DHT22;38793;52.690;6.812;2024-03-23T16:02:22;7.90;50.70
52919;DHT22;38793;52.690;6.812;2024-03-23T16:04:48;8.00;64.00
52919;DHT22;38793;52.690;6.812;2024-03-23T16:07:14;8.30;65.00
52919;DHT22;38793;52.690;6.812;2024-03-23T16:09:40;8.40;52.40
52919;DHT22;38793;52.690;6.812;2024-03-23T16:12:05;8.30;51.40
52919;DHT22;38793;52.690;6.812;2024-03-23T16:14:31;8.20;47.10
52919;DHT22;38793;52.690;6.812;2024-03-23T16:16:57;8.00;49.30
52919;DHT22;38793;52.690;6.812;2024-03-23T16:19:22;8.00;55.30
52919;DHT22;38793;52.690;6.812;2024-03-23T16:21:48;8.10;64.90
52919;DHT22;38793;52.690;6.812;2024-03-23T16:24:14;8.20;60.30
52919;DHT22;38793;52.690;6.812;2024-03-23T16:26:39;8.30;41.60
52919;DHT22;38793;52.690;6.812;2024-03-23T16:29:05;8.40;46.60
52919;DHT22;38793;52.690;6.812;2024-03-23T16:31:31;8.30;46.90
52919;DHT22;38793;52.690;6.812;2024-03-23T16:33:57;8.30;40.10
52919;DHT22;38793;52.690;6.812;2024-03-23T16:36:22;8.20;43.10
52919;DHT22;38793;52.690;6.812;2024-03-23T16:38:48;8.10;43.50
52919;DHT22;38793;52.690;6.812;2024-03-23T16:41:14;7.90;43.40
52919;DHT22;38793;52.690;6.812;2024-03-23T16:43:43;7.70;43.40